Time;durP1;ratioP1;P1;durP2;ratioP2;P2;SDS_P1;SDS_P2;PMS_P1;PMS_P2;Temp;Humidity;BMP_temperature;BMP_pressure;BME280_temperature;BME280_humidity;BME280_pressure;Samples;Min_cycle;Max_cycle;Signal;HPM_P1;HPM_P2
2021/07/27 00:00:35;;;;;;;13.35;8.70;;;19.10;55.50;;;;;;5030642;28;20485;-72
2021/07/27 00:03:01;;;;;;;12.60;8.10;;;19.20;55.30;;;;;;5030393;28;20449;-73
2021/07/27 00:05:28;;;;;;;12.73;8.38;;;19.10;55.80;;;;;;5030379;28;20386;-73
2021/07/27 00:07:53;;;;;;;12.63;9.38;;;19.00;56.80;;;;;;5030569;28;20791;-71
2021/07/27 00:10:19;;;;;;;11.20;9.30;;;19.00;56.40;;;;;;5030599;28;20471;-71
2021/07/27 00:12:45;;;;;;;11.90;9.00;;;19.10;56.30;;;;;;5030420;28;20402;-71
2021/07/27 00:15:11;;;;;;;14.50;10.30;;;18.90;58.30;;;;;;5030408;28;20879;-72
2021/07/27 00:17:37;;;;;;;14.30;9.88;;;18.90;57.80;;;;;;5030106;28;20440;-72
2021/07/27 00:20:03;;;;;;;16.00;10.60;;;18.90;58.40;;;;;;5029948;28;20914;-72
2021/07/27 00:22:28;;;;;;;22.65;11.43;;;18.90;58.60;;;;;;5030554;28;20423;-71
2021/07/27 00:24:54;;;;;;;13.93;10.33;;;18.80;59.50;;;;;;5030266;28;20923;-71
2021/07/27 00:27:20;;;;;;;15.77;10.25;;;18.80;59.20;;;;;;5029765;28;20918;-71
2021/07/27 00:29:45;;;;;;;15.30;9.75;;;18.70;61.00;;;;;;5030298;28;20536;-71
2021/07/27 00:32:11;;;;;;;16.65;10.82;;;18.90;60.80;;;;;;5030218;28;20422;-72
2021/07/27 00:34:37;;;;;;;14.38;9.27;;;19.00;59.00;;;;;;5030941;28;20387;-72
2021/07/27 00:37:03;;;;;;;15.05;9.43;;;19.00;58.90;;;;;;5030144;28;20438;-71
2021/07/27 00:39:28;;;;;;;17.07;9.80;;;19.00;59.40;;;;;;5029875;28;20500;-71
2021/07/27 00:41:54;;;;;;;11.53;9.50;;;19.00;59.00;;;;;;5015009;28;20395;-71
2021/07/27 00:44:20;;;;;;;12.97;9.57;;;19.20;57.40;;;;;;5030110;28;20414;-71
2021/07/27 00:46:45;;;;;;;19.33;10.90;;;19.30;56.70;;;;;;5030020;28;20398;-72
2021/07/27 00:49:11;;;;;;;17.77;12.70;;;19.20;56.90;;;;;;5030397;28;20394;-72
2021/07/27 00:51:38;;;;;;;17.80;12.47;;;19.20;56.10;;;;;;5030234;28;20409;-71
2021/07/27 00:54:06;;;;;;;17.58;12.23;;;19.20;55.80;;;;;;5029900;28;20807;-73
2021/07/27 00:56:33;;;;;;;19.27;12.70;;;19.10;56.50;;;;;;5029327;28;20395;-71
2021/07/27 00:58:58;;;;;;;17.48;12.90;;;19.00;57.50;;;;;;5016557;28;20411;-71
2021/07/27 01:01:24;;;;;;;24.17;13.80;;;18.80;58.80;;;;;;4992616;28;20869;-70
2021/07/27 01:03:50;;;;;;;19.23;12.15;;;18.80;59.80;;;;;;5010287;28;20850;-71
2021/07/27 01:06:15;;;;;;;19.27;13.50;;;18.70;60.90;;;;;;5022298;28;20772;-70
2021/07/27 01:08:42;;;;;;;22.20;13.30;;;18.60;63.00;;;;;;5029162;28;20482;-70
2021/07/27 01:11:08;;;;;;;21.85;14.07;;;18.50;63.20;;;;;;5029675;28;20388;-70
2021/07/27 01:13:34;;;;;;;21.67;14.35;;;18.50;63.50;;;;;;5028512;28;20452;-71
2021/07/27 01:16:05;;;;;;;22.70;13.93;;;18.50;64.30;;;;;;5029670;28;20482;-71
2021/07/27 01:18:36;;;;;;;21.20;14.10;;;18.50;64.30;;;;;;5033033;28;20379;-71
2021/07/27 01:37:50;;;;;;;30.80;17.95;;;18.40;66.20;;;;;;5032939;28;20776;-71
2021/07/27 01:40:17;;;;;;;25.73;16.70;;;18.40;65.50;;;;;;5033257;28;20410;-72
2021/07/27 01:42:43;;;;;;;27.55;17.70;;;18.40;65.20;;;;;;5033221;28;20477;-72
2021/07/27 01:45:11;;;;;;;27.50;16.60;;;18.50;65.60;;;;;;5033390;28;20908;-72
2021/07/27 01:47:37;;;;;;;23.67;16.40;;;18.40;65.60;;;;;;5032822;28;20379;-73
2021/07/27 01:50:03;;;;;;;29.50;17.77;;;18.40;66.80;;;;;;5032849;28;20398;-73
2021/07/27 01:52:28;;;;;;;27.25;16.40;;;18.30;67.40;;;;;;5032843;28;20796;-71
2021/07/27 01:54:56;;;;;;;27.30;15.43;;;18.30;67.40;;;;;;5032778;28;20391;-72
2021/07/27 01:57:23;;;;;;;22.58;15.82;;;18.40;67.40;;;;;;5032978;28;20396;-73
2021/07/27 01:59:57;;;;;;;22.20;14.40;;;18.50;66.50;;;;;;5013452;28;20423;-72
2021/07/27 02:02:23;;;;;;;22.67;14.23;;;18.50;66.50;;;;;;5028145;28;20394;-72
2021/07/27 02:04:49;;;;;;;23.77;14.20;;;18.50;66.70;;;;;;5032605;28;20946;-72
2021/07/27 02:07:14;;;;;;;23.73;14.17;;;18.50;66.40;;;;;;5032490;28;20879;-72
2021/07/27 02:09:43;;;;;;;27.43;16.00;;;18.60;65.90;;;;;;5032520;28;20466;-72
2021/07/27 02:12:35;;;;;;;21.35;14.52;;;18.70;63.40;;;;;;5032576;28;20941;-73
2021/07/27 02:15:04;;;;;;;24.58;14.25;;;18.60;63.60;;;;;;5031627;28;20486;-73
2021/07/27 02:17:30;;;;;;;21.17;14.27;;;18.70;63.50;;;;;;5032356;28;20859;-73
2021/07/27 02:19:55;;;;;;;23.43;15.10;;;18.70;62.60;;;;;;5032432;28;20505;-72
2021/07/27 02:22:21;;;;;;;21.77;14.52;;;18.80;61.40;;;;;;5032381;28;20391;-72
2021/07/27 02:24:46;;;;;;;23.67;14.60;;;18.80;62.10;;;;;;5032162;28;20474;-72
2021/07/27 02:27:12;;;;;;;24.83;15.67;;;18.80;61.40;;;;;;5032220;28;20537;-73
2021/07/27 02:29:38;;;;;;;25.05;16.40;;;18.90;59.70;;;;;;5030452;28;20446;-73
2021/07/27 02:32:03;;;;;;;24.95;15.80;;;18.90;59.80;;;;;;5031979;28;20391;-72
2021/07/27 02:34:32;;;;;;;27.73;16.65;;;18.90;60.60;;;;;;5031861;28;20801;-72
2021/07/27 02:36:58;;;;;;;32.25;17.67;;;18.80;60.70;;;;;;5031694;28;20741;-72
2021/07/27 02:39:24;;;;;;;28.03;15.30;;;18.90;60.60;;;;;;5031695;28;20472;-71
2021/07/27 02:41:49;;;;;;;30.27;17.00;;;19.00;58.80;;;;;;5031838;28;20398;-72
2021/07/27 02:44:15;;;;;;;31.10;17.38;;;19.10;57.50;;;;;;5013800;28;20392;-72
2021/07/27 02:46:40;;;;;;;32.00;17.93;;;19.20;56.20;;;;;;5031561;28;20379;-73
2021/07/27 02:49:06;;;;;;;29.90;18.03;;;19.10;56.80;;;;;;5031513;28;20921;-74
2021/07/27 02:51:32;;;;;;;30.80;18.90;;;19.00;57.50;;;;;;5031808;28;20383;-73
2021/07/27 02:53:57;;;;;;;33.13;21.25;;;18.90;58.50;;;;;;5024385;28;20413;-74
2021/07/27 02:56:23;;;;;;;37.57;21.67;;;19.00;57.10;;;;;;5011200;28;20400;-74
2021/07/27 02:58:49;;;;;;;35.63;22.47;;;19.00;57.00;;;;;;5011733;28;20458;-73
2021/07/27 03:01:14;;;;;;;38.03;21.80;;;18.90;57.80;;;;;;5011715;28;20563;-72
2021/07/27 03:03:40;;;;;;;35.10;21.85;;;18.80;59.10;;;;;;5011805;28;20417;-72
2021/07/27 03:06:05;;;;;;;33.20;20.40;;;18.70;59.80;;;;;;5012123;28;20878;-73
2021/07/27 03:08:46;;;;;;;40.47;24.23;;;18.60;61.50;;;;;;5011147;28;20757;-72
2021/07/27 03:11:16;;;;;;;38.83;22.33;;;18.50;63.40;;;;;;5011742;28;20385;-72
2021/07/27 03:13:42;;;;;;;37.70;25.70;;;18.50;62.80;;;;;;5011633;28;20397;-72
2021/07/27 03:16:13;;;;;;;38.83;24.63;;;18.50;62.00;;;;;;5011394;28;20384;-72
2021/07/27 03:18:38;;;;;;;39.90;25.38;;;18.60;61.40;;;;;;5011349;28;20392;-72
2021/07/27 03:21:04;;;;;;;43.87;24.70;;;18.50;61.10;;;;;;5011421;28;20892;-73
2021/07/27 03:23:29;;;;;;;44.20;24.60;;;18.40;62.20;;;;;;5011196;28;20487;-73
2021/07/27 03:25:55;;;;;;;45.90;24.10;;;18.40;63.10;;;;;;5011546;28;20427;-73
2021/07/27 03:28:20;;;;;;;41.80;26.00;;;18.30;64.40;;;;;;5011566;28;20460;-72
2021/07/27 03:30:50;;;;;;;40.90;25.77;;;18.30;64.70;;;;;;5011151;28;20385;-72
2021/07/27 03:33:15;;;;;;;38.97;25.73;;;18.30;64.60;;;;;;5026629;28;20882;-72
2021/07/27 03:35:41;;;;;;;42.73;26.13;;;18.20;65.50;;;;;;5010691;28;20404;-72
2021/07/27 03:38:07;;;;;;;38.93;25.23;;;18.40;63.80;;;;;;5011039;28;20467;-72
2021/07/27 03:40:34;;;;;;;45.10;26.20;;;18.30;63.90;;;;;;5010496;28;20747;-72
2021/07/27 03:43:00;;;;;;;40.50;24.63;;;18.40;64.80;;;;;;5010981;28;20393;-71
2021/07/27 03:45:25;;;;;;;47.38;24.95;;;18.40;64.30;;;;;;5011441;28;20407;-72
2021/07/27 03:47:51;;;;;;;38.67;25.05;;;18.40;64.00;;;;;;5010883;28;20858;-71
2021/07/27 03:50:16;;;;;;;42.60;24.20;;;18.40;63.70;;;;;;5010765;28;20785;-71
2021/07/27 03:52:42;;;;;;;37.90;25.33;;;18.40;64.10;;;;;;5010852;28;20407;-72
2021/07/27 03:55:08;;;;;;;42.13;25.67;;;18.30;64.00;;;;;;5010880;28;20745;-72
2021/07/27 03:57:33;;;;;;;45.22;26.02;;;18.30;64.30;;;;;;5010363;28;20788;-71
2021/07/27 03:59:59;;;;;;;44.73;28.43;;;18.30;64.30;;;;;;5010143;28;20421;-71
2021/07/27 04:02:25;;;;;;;45.87;27.27;;;18.40;63.30;;;;;;5010595;28;20416;-71
2021/07/27 04:04:51;;;;;;;44.45;27.10;;;18.40;63.00;;;;;;5010451;28;20384;-72
2021/07/27 04:07:17;;;;;;;49.60;29.43;;;18.30;63.30;;;;;;5010190;28;20685;-71
2021/07/27 04:09:43;;;;;;;43.90;28.42;;;18.30;64.10;;;;;;5010091;28;20400;-72
2021/07/27 04:12:08;;;;;;;48.93;29.17;;;18.20;65.00;;;;;;5010277;28;20695;-71
2021/07/27 04:14:34;;;;;;;52.70;30.87;;;18.10;66.10;;;;;;5010331;28;20856;-72
2021/07/27 04:17:00;;;;;;;48.92;30.08;;;18.10;66.60;;;;;;5010415;28;20706;-72
2021/07/27 04:19:25;;;;;;;49.33;29.97;;;18.00;67.80;;;;;;5009768;28;20416;-72
2021/07/27 04:21:51;;;;;;;47.08;28.35;;;18.00;68.10;;;;;;5009380;28;20411;-72
2021/07/27 04:24:18;;;;;;;54.23;30.10;;;18.00;68.80;;;;;;5010034;28;20393;-72
2021/07/27 04:26:47;;;;;;;46.40;30.00;;;18.00;69.10;;;;;;5009575;28;20397;-72
2021/07/27 04:29:17;;;;;;;47.47;28.63;;;18.20;67.00;;;;;;5010168;28;20399;-72
2021/07/27 04:31:42;;;;;;;104.60;64.97;;;18.20;67.20;;;;;;5010175;28;20380;-72
2021/07/27 04:34:08;;;;;;;118.07;74.57;;;18.20;69.10;;;;;;5010182;28;20854;-72
2021/07/27 04:36:33;;;;;;;65.85;42.63;;;18.30;69.00;;;;;;5010246;28;20791;-72
2021/07/27 04:38:59;;;;;;;59.20;35.00;;;18.50;67.00;;;;;;5010570;28;20723;-71
2021/07/27 04:41:24;;;;;;;47.93;30.30;;;18.60;65.60;;;;;;5010265;28;20495;-70
2021/07/27 04:43:50;;;;;;;46.95;30.15;;;18.70;63.50;;;;;;5010016;28;20393;-70
2021/07/27 04:46:15;;;;;;;42.20;29.83;;;18.80;61.00;;;;;;5010007;28;20380;-70
2021/07/27 04:48:41;;;;;;;38.43;24.43;;;18.90;58.90;;;;;;5009675;28;20715;-70
2021/07/27 04:51:07;;;;;;;29.92;22.10;;;19.10;57.40;;;;;;5010319;28;20797;-71
2021/07/27 04:53:36;;;;;;;31.20;21.73;;;19.20;56.20;;;;;;5013841;28;20392;-70
2021/07/27 04:56:02;;;;;;;32.73;20.70;;;19.40;54.70;;;;;;5015471;28;20405;-70
2021/07/27 04:58:28;;;;;;;31.33;22.63;;;19.50;53.20;;;;;;5004630;28;20954;-71
2021/07/27 05:01:00;;;;;;;31.03;21.30;;;19.60;52.90;;;;;;4994200;28;20410;-71
2021/07/27 05:03:26;;;;;;;33.45;23.40;;;19.60;51.60;;;;;;4994112;28;20390;-71
2021/07/27 05:05:52;;;;;;;30.07;20.17;;;19.60;51.50;;;;;;5003294;28;20397;-71
2021/07/27 05:08:18;;;;;;;30.40;21.65;;;19.60;51.10;;;;;;5012657;28;20542;-71
2021/07/27 05:10:45;;;;;;;28.30;19.50;;;19.50;51.90;;;;;;5013971;28;20475;-71
2021/07/27 05:13:11;;;;;;;30.90;20.73;;;19.50;51.60;;;;;;5014179;28;20408;-71
2021/07/27 05:15:36;;;;;;;32.27;20.80;;;19.50;51.60;;;;;;5013679;28;20470;-71
2021/07/27 05:18:02;;;;;;;30.53;19.50;;;19.40;51.80;;;;;;5013709;28;20385;-71
2021/07/27 05:20:28;;;;;;;29.27;19.17;;;19.30;52.40;;;;;;5013591;28;20411;-71
2021/07/27 05:22:54;;;;;;;32.05;19.00;;;19.30;52.70;;;;;;5013442;28;20385;-71
2021/07/27 05:25:20;;;;;;;29.07;19.70;;;19.40;52.20;;;;;;5013026;28;20412;-71
2021/07/27 05:27:46;;;;;;;32.40;21.10;;;19.40;51.80;;;;;;5012616;28;20389;-70
2021/07/27 05:30:13;;;;;;;35.63;24.15;;;19.40;52.10;;;;;;5013364;28;20468;-71
2021/07/27 05:32:39;;;;;;;29.73;18.52;;;19.40;52.10;;;;;;5013270;28;20753;-71
2021/07/27 05:35:06;;;;;;;32.72;18.58;;;19.50;52.20;;;;;;5012623;28;20408;-71
2021/07/27 05:37:32;;;;;;;31.42;22.92;;;19.50;52.20;;;;;;5012234;28;20428;-70
2021/07/27 05:39:57;;;;;;;27.75;20.08;;;19.60;52.00;;;;;;5012890;28;20475;-71
2021/07/27 05:42:23;;;;;;;29.23;19.03;;;19.80;50.60;;;;;;5003094;28;20405;-71
2021/07/27 05:44:48;;;;;;;27.08;17.60;;;20.00;48.60;;;;;;5007511;28;20868;-70
2021/07/27 05:47:14;;;;;;;27.77;16.75;;;20.20;46.60;;;;;;5012617;28;20391;-70
2021/07/27 05:49:40;;;;;;;33.20;18.00;;;20.30;45.40;;;;;;5012453;28;20424;-70
2021/07/27 05:52:06;;;;;;;28.47;20.13;;;20.40;44.30;;;;;;5012881;28;20432;-71
2021/07/27 05:54:32;;;;;;;25.27;17.83;;;20.40;44.00;;;;;;5012670;28;20703;-70
2021/07/27 05:56:58;;;;;;;26.77;16.53;;;20.50;43.30;;;;;;5012696;28;20475;-70
2021/07/27 05:59:23;;;;;;;21.85;15.02;;;20.60;43.00;;;;;;4997076;28;20417;-70
2021/07/27 06:01:50;;;;;;;22.73;15.45;;;20.50;43.00;;;;;;4993343;28;20391;-71
2021/07/27 06:04:16;;;;;;;20.08;14.88;;;20.40;43.00;;;;;;5002192;28;20405;-71
2021/07/27 06:06:41;;;;;;;28.50;15.40;;;20.30;43.10;;;;;;5012358;28;20400;-71
2021/07/27 06:09:10;;;;;;;23.93;15.90;;;20.40;42.90;;;;;;5012385;28;20753;-70
2021/07/27 06:11:36;;;;;;;24.70;14.75;;;20.50;42.30;;;;;;5012724;28;20395;-70
2021/07/27 06:14:04;;;;;;;20.52;14.20;;;20.50;41.80;;;;;;5012408;28;20854;-70
2021/07/27 06:16:30;;;;;;;18.73;13.13;;;20.50;41.80;;;;;;5012560;28;20399;-70
2021/07/27 06:18:56;;;;;;;21.13;12.98;;;20.60;41.70;;;;;;5012258;28;20381;-70
2021/07/27 06:21:22;;;;;;;21.35;13.77;;;20.60;41.10;;;;;;5012465;28;20431;-71
2021/07/27 06:23:47;;;;;;;18.90;13.50;;;20.70;40.70;;;;;;5012091;28;20776;-71
2021/07/27 06:26:13;;;;;;;18.57;13.20;;;20.90;39.90;;;;;;5012057;28;20384;-70
2021/07/27 06:28:39;;;;;;;22.90;12.63;;;21.10;38.80;;;;;;5011914;28;20562;-71
2021/07/27 06:31:12;;;;;;;19.40;12.80;;;21.20;38.00;;;;;;5012845;28;20396;-71
2021/07/27 06:33:42;;;;;;;18.45;12.38;;;21.30;38.00;;;;;;5012624;28;20503;-70
2021/07/27 06:36:08;;;;;;;18.00;11.70;;;21.60;37.50;;;;;;5012181;28;20400;-71
2021/07/27 06:38:34;;;;;;;18.80;11.95;;;21.70;37.30;;;;;;5011933;28;20735;-71
2021/07/27 06:41:00;;;;;;;16.27;11.10;;;21.80;36.00;;;;;;5011692;28;20409;-71
2021/07/27 06:43:26;;;;;;;16.33;10.85;;;21.80;35.90;;;;;;5011634;28;20434;-71
2021/07/27 06:45:55;;;;;;;14.50;11.07;;;21.90;36.10;;;;;;5011659;28;20428;-71
2021/07/27 06:48:21;;;;;;;17.70;10.95;;;22.00;35.60;;;;;;5011523;28;20385;-72
2021/07/27 06:50:47;;;;;;;17.60;10.57;;;22.10;35.30;;;;;;5011892;28;20392;-71
2021/07/27 06:53:12;;;;;;;16.10;10.50;;;22.30;34.60;;;;;;5012547;28;20414;-71
2021/07/27 06:55:38;;;;;;;17.52;11.40;;;22.50;33.80;;;;;;5011310;28;20396;-73
2021/07/27 06:58:03;;;;;;;16.00;11.63;;;22.40;33.50;;;;;;5011813;28;20389;-71
2021/07/27 07:00:29;;;;;;;17.02;11.70;;;22.40;32.80;;;;;;5015626;28;21031;-71
2021/07/27 07:02:55;;;;;;;13.80;10.90;;;22.30;33.20;;;;;;5030979;28;20942;-70
2021/07/27 07:05:20;;;;;;;17.50;11.10;;;22.40;33.10;;;;;;5031138;28;20422;-70
2021/07/27 07:07:46;;;;;;;17.20;10.33;;;22.50;33.30;;;;;;5030470;28;20790;-70
2021/07/27 07:10:12;;;;;;;13.65;11.07;;;22.60;33.30;;;;;;5031277;28;20399;-70
2021/07/27 07:12:37;;;;;;;17.73;11.57;;;22.50;33.00;;;;;;5013535;28;20403;-70
2021/07/27 07:15:04;;;;;;;14.87;10.80;;;22.50;33.10;;;;;;5030714;28;20387;-70
2021/07/27 07:17:30;;;;;;;16.02;10.60;;;22.60;32.80;;;;;;5030690;28;20418;-70
2021/07/27 07:19:56;;;;;;;14.60;10.30;;;22.70;32.50;;;;;;5031243;28;20411;-70
2021/07/27 07:22:21;;;;;;;13.80;11.02;;;22.80;32.20;;;;;;5030822;28;20474;-71
2021/07/27 07:24:47;;;;;;;17.60;10.80;;;22.80;31.40;;;;;;5030992;28;20856;-70
2021/07/27 07:27:13;;;;;;;16.63;10.93;;;22.60;31.50;;;;;;5030705;28;20414;-70
2021/07/27 07:29:40;;;;;;;16.77;10.95;;;22.50;32.00;;;;;;5030450;28;20399;-70
2021/07/27 07:32:06;;;;;;;14.82;10.40;;;22.40;32.00;;;;;;5030715;28;20391;-71
2021/07/27 07:34:32;;;;;;;14.87;9.90;;;22.30;32.20;;;;;;5030998;28;20440;-71
2021/07/27 07:36:57;;;;;;;12.07;9.82;;;22.30;32.20;;;;;;5030607;28;20430;-70
2021/07/27 07:39:23;;;;;;;15.00;9.77;;;22.40;32.00;;;;;;5030433;28;20549;-70
2021/07/27 07:41:48;;;;;;;16.57;10.17;;;22.50;31.80;;;;;;5029812;28;20399;-71
2021/07/27 07:44:14;;;;;;;16.30;11.03;;;22.80;30.90;;;;;;5030616;28;20741;-71
2021/07/27 07:46:40;;;;;;;16.40;9.75;;;23.00;30.60;;;;;;5029676;28;20395;-70
2021/07/27 07:49:08;;;;;;;11.67;9.10;;;23.10;29.60;;;;;;5028302;28;20395;-72
2021/07/27 07:51:35;;;;;;;13.60;9.43;;;23.20;28.70;;;;;;5030181;28;20484;-71
2021/07/27 07:54:01;;;;;;;11.57;8.77;;;23.20;28.20;;;;;;5030959;28;20510;-70
2021/07/27 07:56:27;;;;;;;16.30;9.60;;;23.30;28.60;;;;;;5030151;28;20623;-71
2021/07/27 07:58:52;;;;;;;14.85;9.48;;;23.30;28.30;;;;;;5029616;28;20403;-70
2021/07/27 08:01:18;;;;;;;13.57;10.00;;;23.20;28.40;;;;;;5030283;28;20410;-71
2021/07/27 08:03:44;;;;;;;14.80;9.68;;;23.10;28.70;;;;;;5030056;28;20407;-71
2021/07/27 08:06:09;;;;;;;15.70;10.65;;;23.30;28.30;;;;;;5012231;28;20418;-70
2021/07/27 08:08:39;;;;;;;16.40;10.70;;;23.30;27.90;;;;;;5029286;28;20457;-71
2021/07/27 08:11:06;;;;;;;16.85;10.60;;;23.20;28.20;;;;;;5030376;28;20457;-71
2021/07/27 08:13:32;;;;;;;18.92;10.50;;;23.20;28.60;;;;;;5026539;28;20872;-71
2021/07/27 08:15:57;;;;;;;11.50;10.02;;;23.20;28.60;;;;;;5030210;28;20461;-71
2021/07/27 08:18:23;;;;;;;28.30;14.50;;;23.30;28.80;;;;;;5029460;28;20387;-71
2021/07/27 08:20:49;;;;;;;16.25;10.15;;;23.20;28.60;;;;;;5030045;28;20430;-71
2021/07/27 08:23:15;;;;;;;18.48;10.90;;;23.30;28.40;;;;;;5029757;28;20439;-70
2021/07/27 08:25:40;;;;;;;12.70;10.13;;;23.30;28.30;;;;;;5030303;28;20418;-71
2021/07/27 08:28:06;;;;;;;17.63;11.10;;;23.50;28.70;;;;;;5029107;28;20391;-70
2021/07/27 08:30:31;;;;;;;12.90;9.60;;;23.50;28.10;;;;;;5030013;28;20387;-71
2021/07/27 08:32:57;;;;;;;16.80;9.63;;;23.70;27.90;;;;;;5029203;28;20407;-71
2021/07/27 08:35:23;;;;;;;17.57;11.87;;;24.10;27.10;;;;;;5029919;28;20383;-71
2021/07/27 08:37:50;;;;;;;17.08;10.63;;;24.40;25.80;;;;;;5028875;28;20398;-70
2021/07/27 08:40:17;;;;;;;15.20;10.85;;;24.60;25.80;;;;;;5029721;28;20461;-70
2021/07/27 08:42:44;;;;;;;18.33;11.65;;;24.90;24.90;;;;;;5029321;28;20480;-70
2021/07/27 08:45:12;;;;;;;16.17;11.45;;;24.80;23.60;;;;;;5029671;28;20466;-70
2021/07/27 08:47:43;;;;;;;17.00;10.80;;;24.70;24.50;;;;;;5028905;28;20395;-70
2021/07/27 08:50:09;;;;;;;14.90;11.50;;;24.70;24.50;;;;;;5011842;28;20403;-73
2021/07/27 08:52:35;;;;;;;15.27;10.93;;;24.70;24.50;;;;;;5029500;28;20752;-74
2021/07/27 08:55:04;;;;;;;17.13;11.30;;;24.90;24.60;;;;;;5029197;28;20402;-70
2021/07/27 08:57:29;;;;;;;15.88;10.88;;;24.90;24.40;;;;;;5029025;28;20465;-70
2021/07/27 08:59:55;;;;;;;13.83;10.70;;;24.90;24.30;;;;;;5029427;28;20403;-71
2021/07/27 09:02:31;;;;;;;14.52;11.30;;;24.90;24.60;;;;;;5029413;28;20386;-71
2021/07/27 09:05:06;;;;;;;16.40;11.43;;;24.70;24.10;;;;;;5029376;28;20466;-71
2021/07/27 09:07:32;;;;;;;16.05;11.63;;;24.50;25.00;;;;;;5037886;23;20466;-74
2021/07/27 09:09:57;;;;;;;15.02;11.27;;;24.40;25.30;;;;;;5030064;28;20464;-74
2021/07/27 09:12:23;;;;;;;16.60;12.03;;;24.40;26.00;;;;;;5029749;28;20451;-74
2021/07/27 09:14:50;;;;;;;20.20;11.37;;;24.30;25.00;;;;;;5029631;28;20399;-75
2021/07/27 09:17:24;;;;;;;16.65;11.75;;;24.40;25.50;;;;;;5028110;28;20391;-75
2021/07/27 09:19:49;;;;;;;14.70;11.00;;;24.50;25.50;;;;;;5020379;28;20425;-74
2021/07/27 09:22:15;;;;;;;15.57;11.50;;;24.40;25.30;;;;;;5030015;28;20508;-74
2021/07/27 09:24:41;;;;;;;18.30;11.17;;;24.50;24.80;;;;;;5029720;28;20434;-74
2021/07/27 09:27:10;;;;;;;15.82;11.30;;;24.50;25.20;;;;;;5012238;28;20402;-74
2021/07/27 09:29:46;;;;;;;14.25;11.32;;;24.50;24.30;;;;;;5030363;28;20418;-74
2021/07/27 09:32:17;;;;;;;14.82;11.25;;;24.50;24.00;;;;;;5034008;28;20391;-76
2021/07/27 09:34:43;;;;;;;14.43;10.20;;;24.60;22.60;;;;;;5032473;28;20470;-75
2021/07/27 09:37:08;;;;;;;20.13;12.07;;;24.70;23.40;;;;;;5029993;28;20422;-76
2021/07/27 09:39:36;;;;;;;16.33;10.97;;;24.90;23.30;;;;;;5034011;28;20395;-78
2021/07/27 09:42:04;;;;;;;20.92;11.90;;;25.20;22.80;;;;;;5035169;28;20391;-77
2021/07/27 09:44:31;;;;;;;16.42;11.88;;;25.40;21.50;;;;;;5037790;28;20953;-77
2021/07/27 09:47:00;;;;;;;16.52;11.40;;;25.40;21.50;;;;;;5037227;28;20582;-78
2021/07/27 09:49:27;;;;;;;17.98;12.00;;;25.60;20.70;;;;;;5036920;28;20418;-78
2021/07/27 09:51:53;;;;;;;16.92;11.07;;;25.70;21.40;;;;;;5035583;28;20880;-74
2021/07/27 09:54:21;;;;;;;12.70;10.60;;;25.80;21.30;;;;;;5034102;28;20410;-75
2021/07/27 09:56:47;;;;;;;16.58;10.82;;;25.90;21.70;;;;;;5036814;28;20752;-77
2021/07/27 09:59:17;;;;;;;15.82;11.02;;;26.30;20.50;;;;;;5036952;28;20395;-76
2021/07/27 10:01:51;;;;;;;15.63;11.18;;;26.50;19.70;;;;;;5039545;28;20438;-77
2021/07/27 10:04:23;;;;;;;14.20;11.20;;;26.60;18.40;;;;;;5045949;28;20484;-77
2021/07/27 10:06:49;;;;;;;15.25;10.68;;;26.80;17.20;;;;;;5042340;28;20426;-78
2021/07/27 10:09:26;;;;;;;14.17;10.80;;;26.90;18.10;;;;;;5053826;28;20387;-76
2021/07/27 10:12:03;;;;;;;17.47;10.60;;;26.90;17.50;;;;;;5052897;28;20433;-78
2021/07/27 10:14:38;;;;;;;14.18;11.07;;;26.80;17.70;;;;;;5038947;28;20394;-77
2021/07/27 10:17:04;;;;;;;13.00;10.23;;;26.60;18.00;;;;;;5037070;28;20856;-77
2021/07/27 10:19:46;;;;;;;12.93;9.33;;;26.40;18.30;;;;;;5036736;28;20434;-76
2021/07/27 10:22:15;;;;;;;15.52;11.10;;;26.30;18.90;;;;;;5034092;28;20489;-76
2021/07/27 10:24:46;;;;;;;17.60;11.32;;;26.50;19.00;;;;;;5033437;28;20391;-76
2021/07/27 10:27:21;;;;;;;12.73;10.25;;;26.90;18.00;;;;;;5033665;28;20391;-76
2021/07/27 10:29:47;;;;;;;16.35;10.85;;;27.40;17.40;;;;;;5035251;28;20387;-78
2021/07/27 10:32:14;;;;;;;15.00;10.30;;;28.00;16.10;;;;;;5040310;28;20524;-77
2021/07/27 10:34:43;;;;;;;16.95;10.82;;;28.30;16.30;;;;;;5035498;28;20903;-78
2021/07/27 10:37:14;;;;;;;11.90;10.10;;;28.50;14.90;;;;;;5036835;28;20498;-78
2021/07/27 10:39:57;;;;;;;13.98;10.57;;;28.70;13.60;;;;;;5035972;28;20399;-76
2021/07/27 10:42:24;;;;;;;14.70;10.10;;;28.60;14.30;;;;;;5043432;28;20376;-75
2021/07/27 10:44:51;;;;;;;11.90;9.60;;;28.30;14.60;;;;;;5041252;28;20395;-77
2021/07/27 10:47:21;;;;;;;17.10;9.93;;;27.90;15.30;;;;;;5039474;28;20733;-77
2021/07/27 10:49:57;;;;;;;10.40;9.27;;;27.50;15.60;;;;;;5037559;28;20972;-77
2021/07/27 10:52:25;;;;;;;11.07;9.18;;;27.50;15.10;;;;;;5042678;28;20466;-77
2021/07/27 10:54:55;;;;;;;14.43;9.50;;;27.70;14.40;;;;;;5040088;28;20413;-78
2021/07/27 10:57:24;;;;;;;13.40;9.50;;;27.70;14.00;;;;;;5034294;28;20470;-76
2021/07/27 10:59:49;;;;;;;13.88;9.27;;;27.80;13.90;;;;;;5025754;28;20443;-77
2021/07/27 11:02:15;;;;;;;11.43;8.68;;;27.70;14.70;;;;;;5037494;28;20403;-77
2021/07/27 11:04:41;;;;;;;12.83;9.03;;;27.30;14.40;;;;;;5034951;28;20444;-76
2021/07/27 11:07:19;;;;;;;14.20;9.40;;;26.90;14.60;;;;;;5015389;28;20405;-77
2021/07/27 11:09:55;;;;;;;10.07;8.68;;;26.70;15.30;;;;;;5009407;28;20399;-76
2021/07/27 11:12:31;;;;;;;9.65;8.70;;;26.90;14.70;;;;;;5037167;28;20729;-76
2021/07/27 11:15:09;;;;;;;13.90;8.77;;;27.10;15.10;;;;;;5018611;28;20410;-77
2021/07/27 11:17:51;;;;;;;13.77;9.10;;;27.20;15.00;;;;;;5017407;28;20396;-77
2021/07/27 11:20:22;;;;;;;12.23;9.20;;;27.30;14.60;;;;;;5020348;28;20465;-76
2021/07/27 11:22:53;;;;;;;11.40;8.52;;;27.30;15.30;;;;;;5037219;28;20773;-77
2021/07/27 11:25:20;;;;;;;12.60;8.60;;;27.20;15.10;;;;;;5034067;28;20387;-76
2021/07/27 11:27:47;;;;;;;11.10;8.77;;;27.10;14.70;;;;;;5040504;28;20435;-77
2021/07/27 11:30:13;;;;;;;12.90;8.20;;;26.70;15.20;;;;;;5041393;28;20399;-76
2021/07/27 11:32:40;;;;;;;14.85;8.70;;;26.50;15.50;;;;;;5039829;28;20391;-76
2021/07/27 11:35:07;;;;;;;11.98;8.10;;;26.60;15.20;;;;;;5035607;28;20402;-77
2021/07/27 11:37:33;;;;;;;11.40;8.15;;;26.70;14.80;;;;;;5034508;28;20433;-75
2021/07/27 11:39:58;;;;;;;8.75;7.85;;;26.80;14.70;;;;;;5037314;28;20415;-76
2021/07/27 11:42:31;;;;;;;11.30;8.10;;;26.90;13.00;;;;;;5034298;28;20490;-76
2021/07/27 11:45:04;;;;;;;10.40;8.17;;;27.00;13.00;;;;;;5033387;28;20900;-76
2021/07/27 11:47:43;;;;;;;9.32;7.78;;;27.00;13.70;;;;;;5034506;28;20371;-76
2021/07/27 11:50:13;;;;;;;9.18;7.70;;;27.30;13.00;;;;;;5033494;28;20399;-76
2021/07/27 11:52:41;;;;;;;9.63;8.15;;;27.60;12.80;;;;;;5033369;28;20437;-77
2021/07/27 11:55:07;;;;;;;12.60;8.00;;;27.40;13.10;;;;;;5034226;28;20398;-76
2021/07/27 11:57:34;;;;;;;11.00;7.82;;;27.30;13.30;;;;;;5032970;28;20383;-76
2021/07/27 12:00:16;;;;;;;13.23;8.32;;;27.20;13.50;;;;;;5032889;28;20406;-77
2021/07/27 12:02:43;;;;;;;11.55;8.40;;;27.30;14.10;;;;;;5015878;28;20593;-77
2021/07/27 12:05:09;;;;;;;8.25;7.40;;;27.50;12.60;;;;;;5028192;28;20880;-75
2021/07/27 12:07:38;;;;;;;9.00;7.03;;;27.90;12.00;;;;;;5015624;28;20405;-77
2021/07/27 12:10:05;;;;;;;13.63;7.70;;;28.20;11.20;;;;;;5029006;28;20395;-77
2021/07/27 12:12:30;;;;;;;10.80;7.10;;;28.40;9.70;;;;;;5031067;28;20513;-75
2021/07/27 12:14:56;;;;;;;10.13;7.07;;;28.40;10.70;;;;;;5030000;28;20441;-75
2021/07/27 12:17:22;;;;;;;10.40;7.30;;;28.50;11.10;;;;;;5030943;28;20399;-77
2021/07/27 12:19:47;;;;;;;13.18;8.05;;;28.70;10.90;;;;;;5030918;28;20406;-77
2021/07/27 12:22:13;;;;;;;10.90;8.83;;;28.90;10.30;;;;;;5013459;28;20392;-77
2021/07/27 12:24:38;;;;;;;11.10;8.70;;;29.00;11.70;;;;;;5013135;28;20387;-76
2021/07/27 12:27:04;;;;;;;14.90;9.50;;;28.60;12.80;;;;;;5031614;28;20387;-76
2021/07/27 12:29:30;;;;;;;15.07;9.97;;;27.90;13.70;;;;;;5030478;28;20414;-75
2021/07/27 12:31:55;;;;;;;15.15;10.10;;;27.50;14.80;;;;;;5033153;28;20452;-76
2021/07/27 12:34:21;;;;;;;12.30;9.83;;;27.30;15.10;;;;;;5032243;28;20399;-79
2021/07/27 12:36:46;;;;;;;13.93;9.70;;;27.20;15.60;;;;;;5029924;28;20391;-75
2021/07/27 12:39:12;;;;;;;11.70;9.23;;;27.10;15.60;;;;;;5025709;28;20399;-76
2021/07/27 12:41:37;;;;;;;14.10;9.67;;;27.10;15.20;;;;;;5030326;28;20406;-76
2021/07/27 12:44:03;;;;;;;16.48;10.40;;;27.20;16.50;;;;;;5030966;28;20977;-76
2021/07/27 12:46:29;;;;;;;12.10;9.43;;;27.70;14.90;;;;;;5030527;28;20387;-76